KLDM/LDM METAR and TAF weather

Enter ICAO airport designator
Station Type Date Time Source
KLDM METAR 2021/09/23 23:15 UTC NOAA

KLDM 232315Z AUTO 01006KT 10SM BKN023 BKN034 OVC070 10/09 A2986 RMK AO2 T01020085


Station Type Date Time Source
KLDM Decoded METAR 2021/09/23 23:15 UTC NOAA

Ludington, Mason County Airport, MI, United States (KLDM) 43-58N 86-24W
Sep 23, 2021 - 07:15 PM EDT / 2021.09.23 2315 UTC
Wind: from the N (010 degrees) at 7 MPH (6 KT):0
Visibility: 10 mile(s):0
Sky conditions: overcast
Temperature: 50.4 F (10.2 C)
Dew Point: 47.3 F (8.5 C)
Relative Humidity: 89%
Pressure (altimeter): 29.86 in. Hg (1011 hPa)
ob: KLDM 232315Z AUTO 01006KT 10SM BKN023 BKN034 OVC070 10/09 A2986 RMK AO2 T01020085
cycle: 23

Station Type Date Time Source
KLDM TAF UTC NOAA

Error!

Example: see airport list